PABI/DJN METAR and TAF weather

Enter ICAO airport designator
Station Type Date Time Source
PABI METAR 2021/04/13 06:53 UTC NOAA

PABI 130653Z AUTO 14013KT 10SM CLR 04/M05 A2986 RMK AO2 SLP129 T00441050 TSNO


Station Type Date Time Source
PABI Decoded METAR 2021/04/13 06:53 UTC NOAA

ALLEN ARMY AIRFIELD, AK, United States (PABI) 64-00N 145-43W 391M
Apr 13, 2021 - 02:53 AM EDT / 2021.04.13 0653 UTC
Wind: from the SE (140 degrees) at 15 MPH (13 KT):0
Visibility: 10 mile(s):0
Sky conditions: clear
Temperature: 39.9 F (4.4 C)
Dew Point: 23.0 F (-5.0 C)
Relative Humidity: 50%
Pressure (altimeter): 29.86 in. Hg (1011 hPa)
ob: PABI 130653Z AUTO 14013KT 10SM CLR 04/M05 A2986 RMK AO2 SLP129 T00441050 TSNO
cycle: 7

Station Type Date Time Source
PABI TAF 2021/04/13 06:19 UTC NOAA

TAF PABI 130604Z 1306/1412 10006KT 9999 FEW080 520053 QNH2986INS TX01/1402Z TNM07/1315Z

Example: see airport list